This is the latest recevied weather packets stored in our database for station/object VU3IZK-13. If no packets are shown the sender has not sent any weather packets the latest 10 day(s).
| Time | Temp. | Humidity | Pressure | Rain* | Wind** | Luminosity | Snow |
|---|---|---|---|---|---|---|---|
| 1777095925 | 37.22° C | 26% | 0 hPa | 0 mm | - | - | - |
| 1777095023 | 36.67° C | 23% | 0 hPa | 0 mm | - | - | - |
| 1777094140 | 36.11° C | 28% | 0 hPa | 0 mm | - | - | - |
| 1777093219 | 35.56° C | 26% | 0 hPa | 0 mm | - | - | - |
| 1777092319 | 35° C | 28% | 0 hPa | 0 mm | - | - | - |
| 1777091442 | 34.44° C | 30% | 0 hPa | 0 mm | - | - | - |
| 1777090543 | 33.33° C | 34% | 0 hPa | 0 mm | - | - | - |
| 1777089618 | 32.22° C | 36% | 0 hPa | 0 mm | - | - | - |
| 1777088718 | 31.11° C | 44% | 0 hPa | 0 mm | - | - | - |
| 1777087836 | 30° C | 52% | 0 hPa | 0 mm | - | - | - |
| 1777086915 | 28.89° C | 52% | 0 hPa | 0 mm | - | - | - |
| 1777086015 | 27.22° C | 58% | 0 hPa | 0 mm | - | - | - |
| 1777085138 | 26.11° C | 67% | 0 hPa | 0 mm | - | - | - |
| 1777084239 | 25.56° C | 68% | 0 hPa | 0 mm | - | - | - |
| 1777083317 | 24.44° C | 70% | 0 hPa | 0 mm | - | - | - |
| 1777082418 | 23.89° C | 70% | 0 hPa | 0 mm | - | - | - |
| 1777081541 | 23.33° C | 73% | 0 hPa | 0 mm | - | - | - |
| 1777080642 | 23.33° C | 70% | 0 hPa | 0 mm | - | - | - |
| 1777079720 | 23.33° C | 68% | 0 hPa | 0 mm | - | - | - |
| 1777078819 | 23.33° C | 68% | 0 hPa | 0 mm | - | - | - |
| 1777077939 | 23.33° C | 68% | 0 hPa | 0 mm | - | - | - |
| 1777077019 | 23.89° C | 69% | 0 hPa | 0 mm | - | - | - |
| 1777076120 | 23.89° C | 68% | 0 hPa | 0 mm | - | - | - |
| 1777075220 | 24.44° C | 68% | 0 hPa | 0 mm | - | - | - |
| 1777074342 | 25° C | 64% | 0 hPa | 0 mm | - | - | - |
* Rain latest hour (hover to see other rain measurements)
** Current wind speed in m/s (hover to see current wind gust speed)